createdAt,value
2018-06-23T00:00:37.204Z,12.37
2018-06-23T00:01:40.611Z,15.70
2018-06-23T00:02:44.051Z,13.18
2018-06-23T00:03:47.472Z,13.85
2018-06-23T00:04:50.855Z,18.42
2018-06-23T00:05:55.384Z,11.60
2018-06-23T00:06:58.514Z,11.97
2018-06-23T00:08:01.755Z,10.23
2018-06-23T00:09:06.606Z,16.62
2018-06-23T00:10:10.935Z,12.18
2018-06-23T00:11:15.473Z,15.23
2018-06-23T00:12:18.895Z,16.15
2018-06-23T00:13:22.271Z,14.70
2018-06-23T00:14:25.675Z,12.65
2018-06-23T00:15:30.118Z,12.85
2018-06-23T00:16:33.535Z,17.92
2018-06-23T00:17:37.119Z,13.68
2018-06-23T00:18:40.500Z,14.03
2018-06-23T00:19:44.407Z,10.13
2018-06-23T00:20:49.245Z,12.95
2018-06-23T00:21:52.687Z,9.55
2018-06-23T00:22:56.072Z,22.45
2018-06-23T00:23:59.459Z,16.17
2018-06-23T00:25:03.150Z,14.73
2018-06-23T00:26:12.680Z,18.52
2018-06-23T00:27:16.563Z,16.02
2018-06-23T00:28:19.967Z,14.38
2018-06-23T00:29:23.355Z,9.80
2018-06-23T00:30:27.964Z,13.28
2018-06-23T00:31:31.371Z,19.15
2018-06-23T00:32:34.819Z,14.05
2018-06-23T00:33:37.895Z,14.55
2018-06-23T00:34:40.995Z,14.85
2018-06-23T00:35:46.402Z,13.45
2018-06-23T00:36:49.799Z,11.03
2018-06-23T00:37:53.176Z,10.45
2018-06-23T00:38:56.251Z,12.78
2018-06-23T00:39:59.339Z,14.07
2018-06-23T00:41:03.208Z,13.25
2018-06-23T00:42:06.323Z,16.15
2018-06-23T00:43:09.398Z,13.55
2018-06-23T00:44:12.779Z,14.23
2018-06-23T00:45:17.227Z,14.60
2018-06-23T00:46:22.124Z,12.60
2018-06-23T00:47:25.504Z,11.80
2018-06-23T00:48:28.883Z,10.05
2018-06-23T00:49:31.963Z,10.78
2018-06-23T00:50:36.948Z,13.08
2018-06-23T00:51:40.119Z,17.32
2018-06-23T00:52:43.503Z,15.35
2018-06-23T00:53:46.881Z,12.58
2018-06-23T00:54:50.251Z,15.30
2018-06-23T00:55:54.609Z,11.85
2018-06-23T00:56:58.034Z,15.13
2018-06-23T00:58:01.555Z,13.45
2018-06-23T00:59:16.187Z,13.78
2018-06-23T01:00:20.607Z,17.17
2018-06-23T01:01:24.588Z,13.53
2018-06-23T01:02:28.028Z,17.12
2018-06-23T01:03:31.399Z,13.50
2018-06-23T01:04:35.008Z,16.95
2018-06-23T01:05:39.769Z,12.80
2018-06-23T01:06:43.187Z,16.35
2018-06-23T01:07:46.587Z,10.82
2018-06-23T01:08:49.972Z,10.32
2018-06-23T01:09:53.367Z,12.65
2018-06-23T01:10:57.761Z,14.50
2018-06-23T01:12:01.144Z,15.88
2018-06-23T01:13:04.807Z,13.28
2018-06-23T01:14:08.184Z,14.40
2018-06-23T01:15:12.646Z,14.83
2018-06-23T01:16:16.356Z,9.95
2018-06-23T01:17:19.491Z,10.68
2018-06-23T01:18:22.900Z,18.92
2018-06-23T01:19:26.471Z,10.90
2018-06-23T01:20:31.085Z,12.78
2018-06-23T01:21:34.512Z,12.15
2018-06-23T01:22:37.899Z,11.05
2018-06-23T01:23:41.347Z,19.20
2018-06-23T01:24:44.747Z,14.50
2018-06-23T01:25:49.286Z,16.30
2018-06-23T01:26:52.740Z,12.35
2018-06-23T01:27:56.111Z,9.48
2018-06-23T01:28:59.535Z,13.38
2018-06-23T01:30:03.686Z,13.13
2018-06-23T01:31:08.318Z,16.05
2018-06-23T01:32:11.801Z,11.48
2018-06-23T01:33:15.236Z,14.98
2018-06-23T01:34:18.645Z,17.30
2018-06-23T01:35:22.966Z,17.20
2018-06-23T01:36:28.475Z,11.40
2018-06-23T01:37:31.549Z,14.63
2018-06-23T01:38:34.643Z,11.12
2018-06-23T01:39:37.848Z,13.80
2018-06-23T01:40:42.393Z,16.00
2018-06-23T01:41:45.803Z,16.73
2018-06-23T01:42:49.195Z,16.15
2018-06-23T01:43:52.279Z,12.73
2018-06-23T01:44:55.377Z,15.83
2018-06-23T01:46:00.512Z,12.15
2018-06-23T01:47:03.927Z,14.68
2018-06-23T01:48:07.445Z,12.58
2018-06-23T01:49:10.815Z,13.68
2018-06-23T01:50:15.192Z,19.07
2018-06-23T01:51:19.579Z,11.65
2018-06-23T01:52:22.979Z,12.68
2018-06-23T01:53:26.400Z,16.27
2018-06-23T01:54:29.787Z,16.87
2018-06-23T01:55:34.262Z,11.43
2018-06-23T01:56:37.685Z,14.25
2018-06-23T01:57:41.067Z,18.02
2018-06-23T01:58:44.471Z,16.35
2018-06-23T01:59:47.864Z,12.78
2018-06-23T02:00:52.412Z,10.88
2018-06-23T02:01:55.831Z,15.45
2018-06-23T02:02:59.215Z,18.37
2018-06-23T02:04:02.652Z,10.38
2018-06-23T02:05:07.763Z,17.60
2018-06-23T02:06:11.762Z,13.70
2018-06-23T02:07:14.862Z,17.48
2018-06-23T02:08:17.936Z,18.25
2018-06-23T02:09:21.014Z,13.32
2018-06-23T02:10:24.854Z,13.13
2018-06-23T02:11:29.119Z,19.73
2018-06-23T02:12:32.234Z,12.65
2018-06-23T02:13:35.737Z,9.38
2018-06-23T02:14:44.537Z,13.28
2018-06-23T02:15:54.160Z,12.10
2018-06-23T02:17:02.900Z,12.60
2018-06-23T02:18:11.904Z,15.28
2018-06-23T02:19:20.500Z,21.62
2018-06-23T02:20:30.079Z,13.90
2018-06-23T02:21:38.763Z,13.93
2018-06-23T02:22:47.475Z,9.55
2018-06-23T02:23:56.279Z,13.85
2018-06-23T02:25:05.274Z,14.30
2018-06-23T02:26:14.683Z,15.95
2018-06-23T02:27:23.339Z,12.93
2018-06-23T02:28:32.083Z,16.77
2018-06-23T02:29:40.791Z,12.63
2018-06-23T02:30:50.269Z,15.18
2018-06-23T02:31:59.007Z,18.25
2018-06-23T02:33:07.848Z,13.65
2018-06-23T02:34:16.403Z,12.03
2018-06-23T02:35:21.259Z,11.33
2018-06-23T02:36:26.031Z,14.65
2018-06-23T02:37:29.442Z,20.00
2018-06-23T02:38:32.863Z,15.55
2018-06-23T02:39:36.247Z,15.65
2018-06-23T02:40:40.911Z,16.60
2018-06-23T02:41:44.372Z,11.95
2018-06-23T02:42:47.454Z,14.75
2018-06-23T02:43:50.577Z,11.43
2018-06-23T02:44:53.957Z,15.63
2018-06-23T02:45:59.076Z,15.98
2018-06-23T02:47:02.546Z,20.52
2018-06-23T02:48:05.952Z,17.67
2018-06-23T02:49:09.352Z,15.30
2018-06-23T02:50:13.793Z,10.98
2018-06-23T02:51:18.248Z,14.58
2018-06-23T02:52:21.395Z,13.95
2018-06-23T02:53:24.815Z,13.72
2018-06-23T02:54:28.240Z,10.95
2018-06-23T02:55:33.263Z,22.15
2018-06-23T02:56:36.375Z,11.75
2018-06-23T02:57:39.447Z,13.05
2018-06-23T02:58:42.832Z,16.27
2018-06-23T02:59:46.215Z,12.55
2018-06-23T03:00:50.842Z,13.80
2018-06-23T03:01:54.260Z,12.13
2018-06-23T03:02:57.645Z,13.75
2018-06-23T03:04:01.027Z,15.78
2018-06-23T03:05:05.885Z,18.65
2018-06-23T03:06:10.985Z,14.05
2018-06-23T03:07:14.588Z,18.05
2018-06-23T03:08:17.968Z,19.40
2018-06-23T03:09:21.350Z,10.68
2018-06-23T03:10:25.868Z,14.58
2018-06-23T03:11:29.951Z,12.35
2018-06-23T03:12:33.328Z,13.50
2018-06-23T03:13:36.717Z,12.58
2018-06-23T03:14:40.092Z,10.53
2018-06-23T03:15:44.432Z,19.37
2018-06-23T03:16:47.828Z,14.07
2018-06-23T03:17:51.212Z,14.80
2018-06-23T03:18:55.236Z,17.60
2018-06-23T03:19:58.631Z,13.15
2018-06-23T03:21:03.200Z,17.50
2018-06-23T03:22:06.622Z,17.27
2018-06-23T03:23:10.016Z,13.35
2018-06-23T03:24:13.447Z,15.32
2018-06-23T03:25:17.961Z,17.32
2018-06-23T03:26:22.511Z,21.35
2018-06-23T03:27:25.902Z,13.13
2018-06-23T03:28:29.275Z,12.23
2018-06-23T03:29:32.667Z,13.60
2018-06-23T03:30:37.224Z,18.70
2018-06-23T03:31:40.656Z,11.45
2018-06-23T03:32:44.051Z,17.42
2018-06-23T03:33:47.467Z,13.32
2018-06-23T03:34:50.851Z,13.55
2018-06-23T03:35:55.294Z,16.93
2018-06-23T03:36:58.742Z,15.38
2018-06-23T03:38:02.123Z,14.58
2018-06-23T03:39:08.447Z,10.08
2018-06-23T03:40:13.047Z,12.23
2018-06-23T03:41:17.872Z,16.30
2018-06-23T03:42:21.316Z,16.97
2018-06-23T03:43:24.725Z,21.73
2018-06-23T03:44:28.100Z,15.08
2018-06-23T03:45:33.181Z,15.72
2018-06-23T03:46:36.579Z,20.70
2018-06-23T03:47:39.991Z,16.12
2018-06-23T03:48:43.066Z,16.48
2018-06-23T03:49:46.139Z,16.57
2018-06-23T03:50:49.967Z,12.18
2018-06-23T03:51:53.392Z,13.55
2018-06-23T03:52:56.819Z,10.08
2018-06-23T03:53:59.906Z,17.50
2018-06-23T03:55:03.764Z,19.00
2018-06-23T03:56:07.576Z,14.23
2018-06-23T03:57:10.987Z,17.82
2018-06-23T03:58:14.387Z,20.75
2018-06-23T03:59:17.779Z,13.32
2018-06-23T04:00:22.588Z,14.50
2018-06-23T04:01:26.967Z,13.45
2018-06-23T04:02:30.370Z,14.05
2018-06-23T04:03:33.815Z,15.72
2018-06-23T04:04:37.203Z,14.05
2018-06-23T04:05:46.507Z,14.45
2018-06-23T04:06:49.931Z,14.73
2018-06-23T04:07:53.338Z,14.98
2018-06-23T04:08:56.434Z,16.73
2018-06-23T04:09:59.820Z,21.37
2018-06-23T04:11:04.481Z,13.48
2018-06-23T04:12:07.623Z,11.68
2018-06-23T04:13:11.018Z,16.65
2018-06-23T04:14:14.420Z,18.02
2018-06-23T04:15:18.939Z,21.60
2018-06-23T04:16:23.118Z,15.65
2018-06-23T04:17:26.547Z,18.62
2018-06-23T04:18:29.923Z,20.62
2018-06-23T04:19:33.331Z,14.07
2018-06-23T04:20:37.804Z,14.73
2018-06-23T04:21:41.227Z,17.27
2018-06-23T04:22:44.607Z,15.53
2018-06-23T04:23:47.995Z,17.50
2018-06-23T04:24:51.402Z,11.40
2018-06-23T04:25:55.070Z,11.57
2018-06-23T04:26:58.171Z,15.53
2018-06-23T04:28:01.247Z,17.45
2018-06-23T04:29:04.326Z,21.27
2018-06-23T04:30:08.379Z,17.00
2018-06-23T04:31:12.794Z,12.25
2018-06-23T04:32:16.717Z,12.93
2018-06-23T04:33:20.136Z,14.95
2018-06-23T04:34:23.571Z,15.18
2018-06-23T04:35:28.027Z,13.05
2018-06-23T04:36:31.424Z,14.68
2018-06-23T04:37:34.804Z,17.55
2018-06-23T04:38:38.367Z,13.85
2018-06-23T04:39:41.841Z,15.68
2018-06-23T04:40:46.314Z,12.78
2018-06-23T04:41:49.729Z,14.98
2018-06-23T04:42:53.116Z,15.40
2018-06-23T04:43:56.507Z,14.43
2018-06-23T04:44:59.895Z,17.77
2018-06-23T04:46:04.438Z,11.03
2018-06-23T04:47:07.867Z,17.12
2018-06-23T04:48:11.251Z,16.87
2018-06-23T04:49:14.659Z,19.20
2018-06-23T04:50:19.014Z,15.15
2018-06-23T04:51:23.139Z,17.10
2018-06-23T04:52:26.544Z,19.48
2018-06-23T04:53:30.143Z,12.35
2018-06-23T04:54:33.519Z,11.15
2018-06-23T04:55:38.039Z,16.87
2018-06-23T04:56:41.176Z,15.70
2018-06-23T04:57:44.561Z,13.20
2018-06-23T04:58:47.939Z,14.73
2018-06-23T04:59:51.324Z,10.40
2018-06-23T05:00:55.753Z,14.65
2018-06-23T05:01:59.195Z,16.82
2018-06-23T05:03:02.579Z,15.03
2018-06-23T05:04:05.955Z,14.83
2018-06-23T05:05:10.649Z,16.32
2018-06-23T05:06:15.064Z,16.35
2018-06-23T05:07:18.504Z,12.93
2018-06-23T05:08:21.582Z,19.50
2018-06-23T05:09:24.655Z,21.25
2018-06-23T05:10:28.741Z,10.63
2018-06-23T05:11:31.839Z,20.90
2018-06-23T05:12:34.967Z,11.00
2018-06-23T05:13:38.412Z,13.98
2018-06-23T05:14:41.844Z,12.58
2018-06-23T05:15:46.066Z,20.82
2018-06-23T05:16:49.174Z,15.50
2018-06-23T05:17:52.290Z,17.77
2018-06-23T05:18:55.669Z,16.90
2018-06-23T05:19:59.051Z,14.45
2018-06-23T05:21:04.183Z,18.65
2018-06-23T05:22:07.652Z,11.78
2018-06-23T05:23:10.767Z,16.60
2018-06-23T05:24:14.135Z,17.75
2018-06-23T05:25:18.543Z,13.50
2018-06-23T05:26:22.681Z,13.32
2018-06-23T05:27:26.073Z,14.55
2018-06-23T05:28:29.483Z,19.12
2018-06-23T05:29:32.876Z,15.93
2018-06-23T05:30:36.572Z,14.98
2018-06-23T05:31:39.980Z,18.98
2018-06-23T05:32:43.446Z,16.67
2018-06-23T05:33:46.531Z,15.98
2018-06-23T05:34:49.607Z,18.07
2018-06-23T05:35:53.793Z,15.30
2018-06-23T05:36:57.167Z,18.70
2018-06-23T05:38:00.551Z,13.88
2018-06-23T05:39:05.789Z,17.05
2018-06-23T05:40:10.347Z,18.67
2018-06-23T05:41:14.683Z,13.55
2018-06-23T05:42:18.098Z,21.93
2018-06-23T05:43:21.479Z,24.23
2018-06-23T05:44:26.244Z,18.62
2018-06-23T05:45:30.892Z,17.20
2018-06-23T05:46:34.796Z,15.55
2018-06-23T05:47:38.181Z,13.68
2018-06-23T05:48:41.582Z,14.85
2018-06-23T05:49:45.164Z,14.93
2018-06-23T05:50:49.564Z,17.60
2018-06-23T05:51:52.675Z,13.35
2018-06-23T05:52:56.063Z,16.23
2018-06-23T05:53:59.138Z,14.50
2018-06-23T05:55:02.677Z,20.37
2018-06-23T05:56:07.067Z,14.03
2018-06-23T05:57:10.503Z,15.85
2018-06-23T05:58:13.879Z,11.33
2018-06-23T05:59:17.272Z,14.13
2018-06-23T06:00:22.044Z,20.97
2018-06-23T06:01:26.510Z,14.83
2018-06-23T06:02:29.606Z,16.35
2018-06-23T06:03:32.983Z,24.85
2018-06-23T06:04:36.376Z,12.37
2018-06-23T06:05:41.281Z,16.15
2018-06-23T06:06:44.847Z,12.40
2018-06-23T06:07:48.235Z,16.95
2018-06-23T06:08:51.620Z,17.98
2018-06-23T06:09:55.015Z,18.73
2018-06-23T06:11:00.068Z,19.80
2018-06-23T06:12:03.497Z,15.43
2018-06-23T06:13:06.949Z,15.95
2018-06-23T06:14:10.023Z,17.70
2018-06-23T06:15:14.336Z,10.48
2018-06-23T06:16:23.486Z,17.98
2018-06-23T06:17:28.123Z,16.05
2018-06-23T06:18:31.512Z,15.75
2018-06-23T06:19:34.897Z,19.32
2018-06-23T06:20:39.571Z,15.28
2018-06-23T06:21:43.003Z,15.68
2018-06-23T06:22:47.104Z,15.63
2018-06-23T06:23:50.649Z,8.70
2018-06-23T06:24:54.008Z,14.00
2018-06-23T06:25:58.525Z,15.85
2018-06-23T06:27:01.969Z,13.08
2018-06-23T06:28:05.371Z,13.72
2018-06-23T06:29:10.160Z,14.78
2018-06-23T06:30:14.611Z,14.87
2018-06-23T06:31:19.085Z,14.45
2018-06-23T06:32:22.827Z,15.68
2018-06-23T06:33:26.211Z,17.35
2018-06-23T06:34:29.603Z,17.82
2018-06-23T06:35:34.057Z,14.98
2018-06-23T06:36:37.467Z,17.80
2018-06-23T06:37:40.884Z,15.68
2018-06-23T06:38:44.298Z,13.25
2018-06-23T06:39:47.650Z,19.20
2018-06-23T06:40:53.126Z,15.23
2018-06-23T06:41:56.555Z,14.45
2018-06-23T06:42:59.951Z,12.75
2018-06-23T06:44:03.404Z,11.90
2018-06-23T06:45:07.985Z,17.65
2018-06-23T06:46:15.347Z,15.80
2018-06-23T06:47:19.927Z,17.35
2018-06-23T06:48:23.388Z,14.35
2018-06-23T06:49:26.835Z,17.42
2018-06-23T06:50:32.313Z,16.55
2018-06-23T06:51:35.735Z,12.25
2018-06-23T06:52:39.199Z,11.75
2018-06-23T06:53:42.608Z,11.20
2018-06-23T06:54:46.191Z,14.20
2018-06-23T06:55:50.762Z,16.25
2018-06-23T06:56:54.303Z,13.60
2018-06-23T06:57:57.688Z,15.60
2018-06-23T06:59:01.128Z,16.40
2018-06-23T07:00:06.163Z,13.75
2018-06-23T07:01:10.390Z,15.35
2018-06-23T07:02:13.800Z,12.98
2018-06-23T07:03:17.183Z,17.27
2018-06-23T07:04:20.883Z,12.20
2018-06-23T07:05:25.713Z,16.25
2018-06-23T07:06:30.156Z,13.32
2018-06-23T07:07:33.537Z,17.23
2018-06-23T07:08:36.935Z,15.58
2018-06-23T07:09:40.331Z,10.00
2018-06-23T07:10:45.694Z,14.98
2018-06-23T07:11:48.801Z,13.22
2018-06-23T07:12:52.183Z,17.10
2018-06-23T07:13:55.601Z,10.90
2018-06-23T07:14:59.003Z,14.65
2018-06-23T07:16:03.379Z,19.35
2018-06-23T07:17:06.789Z,12.40
2018-06-23T07:18:10.185Z,14.75
2018-06-23T07:19:13.575Z,16.32
2018-06-23T07:20:18.403Z,14.70
2018-06-23T07:21:22.703Z,14.20
2018-06-23T07:22:26.096Z,19.50
2018-06-23T07:23:29.513Z,16.27
2018-06-23T07:24:32.872Z,11.97
2018-06-23T07:25:38.484Z,18.60
2018-06-23T07:26:41.928Z,15.55
2018-06-23T07:27:45.331Z,17.85
2018-06-23T07:28:48.429Z,16.57
2018-06-23T07:29:51.563Z,14.15
2018-06-23T07:30:56.575Z,12.95
2018-06-23T07:31:59.985Z,19.30
2018-06-23T07:33:03.363Z,18.62
2018-06-23T07:34:06.767Z,15.83
2018-06-23T07:35:10.638Z,12.78
2018-06-23T07:36:15.190Z,17.85
2018-06-23T07:37:18.656Z,14.10
2018-06-23T07:38:22.047Z,20.55
2018-06-23T07:39:26.770Z,14.20
2018-06-23T07:40:30.678Z,12.78
2018-06-23T07:41:34.120Z,11.73
2018-06-23T07:42:37.525Z,10.53
2018-06-23T07:43:40.941Z,12.33
2018-06-23T07:44:44.330Z,16.77
2018-06-23T07:45:49.099Z,13.70
2018-06-23T07:46:52.230Z,12.35
2018-06-23T07:47:55.606Z,13.38
2018-06-23T07:48:58.682Z,19.55
2018-06-23T07:50:02.193Z,14.20
2018-06-23T07:51:06.566Z,13.78
2018-06-23T07:52:09.995Z,11.55
2018-06-23T07:53:13.372Z,11.50
2018-06-23T07:54:16.754Z,15.05
2018-06-23T07:55:21.126Z,12.78
2018-06-23T07:56:25.169Z,13.18
2018-06-23T07:57:30.992Z,11.43
2018-06-23T07:58:34.074Z,13.83
2018-06-23T07:59:37.463Z,10.15
2018-06-23T08:00:42.009Z,12.18
2018-06-23T08:01:45.517Z,11.48
2018-06-23T08:02:48.939Z,14.78
2018-06-23T08:03:52.021Z,12.23
2018-06-23T08:04:55.102Z,15.85
2018-06-23T08:05:59.259Z,12.10
2018-06-23T08:07:03.386Z,14.00
2018-06-23T08:08:06.867Z,14.25
2018-06-23T08:09:10.507Z,16.48
2018-06-23T08:10:15.483Z,12.80
2018-06-23T08:11:18.954Z,9.53
2018-06-23T08:12:22.572Z,15.08
2018-06-23T08:13:25.982Z,12.05
2018-06-23T08:14:29.076Z,18.17
2018-06-23T08:15:34.106Z,13.35
2018-06-23T08:16:37.516Z,17.10
2018-06-23T08:17:40.970Z,13.80
2018-06-23T08:18:44.741Z,12.78
2018-06-23T08:19:47.815Z,16.35
2018-06-23T08:20:52.843Z,15.75
2018-06-23T08:21:56.339Z,19.52
2018-06-23T08:22:59.723Z,13.60
2018-06-23T08:24:02.821Z,12.05
2018-06-23T08:25:07.541Z,13.35
2018-06-23T08:26:12.092Z,23.47
2018-06-23T08:27:15.495Z,13.30
2018-06-23T08:28:18.867Z,9.45
2018-06-23T08:29:22.285Z,19.82
2018-06-23T08:30:26.623Z,14.18
2018-06-23T08:31:30.208Z,9.55
2018-06-23T08:32:33.614Z,14.20
2018-06-23T08:33:37.114Z,12.88
2018-06-23T08:34:40.574Z,13.18
2018-06-23T08:35:44.995Z,7.92
2018-06-23T08:36:48.415Z,12.98
2018-06-23T08:37:51.868Z,8.18
2018-06-23T08:38:55.197Z,11.10
2018-06-23T08:39:58.587Z,15.55
2018-06-23T08:41:02.983Z,12.55
2018-06-23T08:42:06.082Z,12.43
2018-06-23T08:43:09.490Z,17.23
2018-06-23T08:44:12.920Z,10.53
2018-06-23T08:45:17.404Z,12.43
2018-06-23T08:46:21.736Z,8.90
2018-06-23T08:47:25.135Z,10.28
2018-06-23T08:48:28.520Z,10.43
2018-06-23T08:49:31.923Z,13.55
2018-06-23T08:50:36.429Z,11.80
2018-06-23T08:51:39.538Z,12.05
2018-06-23T08:52:42.615Z,14.50
2018-06-23T08:53:45.703Z,14.13
2018-06-23T08:54:48.778Z,10.58
2018-06-23T08:55:53.343Z,8.95
2018-06-23T08:56:56.725Z,11.53
2018-06-23T08:58:00.124Z,10.05
2018-06-23T08:59:03.507Z,16.60
2018-06-23T09:00:08.387Z,17.07
2018-06-23T09:01:13.291Z,11.55
2018-06-23T09:02:16.919Z,13.78
2018-06-23T09:03:20.294Z,14.50
2018-06-23T09:04:23.734Z,11.55
2018-06-23T09:05:28.088Z,10.48
2018-06-23T09:06:32.231Z,9.98
2018-06-23T09:07:35.623Z,14.50
2018-06-23T09:08:39.015Z,11.80
2018-06-23T09:09:42.389Z,12.50
2018-06-23T09:10:46.761Z,13.05
2018-06-23T09:11:50.191Z,10.13
2018-06-23T09:12:53.567Z,8.98
2018-06-23T09:13:56.959Z,12.53
2018-06-23T09:15:00.328Z,7.25
2018-06-23T09:16:04.685Z,12.73
2018-06-23T09:17:08.099Z,12.28
2018-06-23T09:18:11.491Z,9.40
2018-06-23T09:19:14.873Z,10.50
2018-06-23T09:20:19.319Z,12.90
2018-06-23T09:21:22.883Z,12.78
2018-06-23T09:22:26.719Z,8.43
2018-06-23T09:23:30.126Z,8.63
2018-06-23T09:24:33.209Z,12.33
2018-06-23T09:25:37.346Z,8.78
2018-06-23T09:26:40.736Z,10.20
2018-06-23T09:27:44.135Z,13.88
2018-06-23T09:28:47.523Z,12.15
2018-06-23T09:29:50.907Z,12.53
2018-06-23T09:30:55.642Z,9.73
2018-06-23T09:31:58.746Z,11.50
2018-06-23T09:33:02.144Z,11.18
2018-06-23T09:34:05.552Z,9.10
2018-06-23T09:35:10.914Z,7.42
2018-06-23T09:36:15.983Z,10.70
2018-06-23T09:37:19.404Z,12.45
2018-06-23T09:38:22.980Z,9.03
2018-06-23T09:39:26.792Z,5.97
2018-06-23T09:40:32.023Z,12.18
2018-06-23T09:41:35.475Z,8.60
2018-06-23T09:42:38.855Z,7.22
2018-06-23T09:43:42.247Z,11.22
2018-06-23T09:44:45.631Z,11.35
2018-06-23T09:45:50.108Z,7.62
2018-06-23T09:46:53.574Z,11.55
2018-06-23T09:47:57.015Z,17.30
2018-06-23T09:49:00.663Z,11.12
2018-06-23T09:50:04.520Z,6.60
2018-06-23T09:51:09.000Z,6.83
2018-06-23T09:52:12.403Z,11.93
2018-06-23T09:53:15.787Z,8.43
2018-06-23T09:54:19.231Z,5.55
2018-06-23T09:55:23.555Z,8.63
2018-06-23T09:56:28.271Z,8.55
2018-06-23T09:57:31.687Z,9.85
2018-06-23T09:58:35.067Z,10.68
2018-06-23T09:59:39.336Z,6.95
2018-06-23T10:00:43.768Z,9.80
2018-06-23T10:01:47.167Z,7.03
2018-06-23T10:02:50.237Z,7.47
2018-06-23T10:03:53.654Z,8.03
2018-06-23T10:04:57.051Z,7.78
2018-06-23T10:06:01.456Z,7.58
2018-06-23T10:07:04.966Z,6.65
2018-06-23T10:08:08.355Z,13.58
2018-06-23T10:09:11.939Z,8.38
2018-06-23T10:10:17.482Z,10.30
2018-06-23T10:11:22.099Z,10.13
2018-06-23T10:12:25.476Z,13.38
2018-06-23T10:13:28.848Z,10.72
2018-06-23T10:14:32.223Z,10.10
2018-06-23T10:15:37.269Z,7.75
2018-06-23T10:16:40.683Z,8.83
2018-06-23T10:17:44.067Z,8.00
2018-06-23T10:18:47.451Z,6.70
2018-06-23T10:19:50.827Z,6.75
2018-06-23T10:20:56.954Z,6.58
2018-06-23T10:22:00.367Z,7.12
2018-06-23T10:23:03.747Z,10.35
2018-06-23T10:24:07.129Z,10.32
2018-06-23T10:25:12.021Z,8.68
2018-06-23T10:26:16.461Z,8.35
2018-06-23T10:27:19.918Z,10.43
2018-06-23T10:28:22.958Z,9.68
2018-06-23T10:29:26.339Z,6.40
2018-06-23T10:30:30.668Z,5.65
2018-06-23T10:31:34.102Z,8.23
2018-06-23T10:32:37.511Z,6.33
2018-06-23T10:33:40.888Z,5.05
2018-06-23T10:34:44.275Z,10.95
2018-06-23T10:35:48.614Z,6.85
2018-06-23T10:36:52.037Z,7.30
2018-06-23T10:37:55.414Z,6.40
2018-06-23T10:38:58.924Z,6.62
2018-06-23T10:40:02.324Z,8.18
2018-06-23T10:41:06.729Z,5.40
2018-06-23T10:42:09.879Z,8.73
2018-06-23T10:43:13.255Z,10.65
2018-06-23T10:44:16.635Z,12.70
2018-06-23T10:45:21.033Z,8.08
2018-06-23T10:46:25.246Z,10.88
2018-06-23T10:47:28.350Z,10.43
2018-06-23T10:48:31.735Z,7.22
2018-06-23T10:49:35.127Z,7.35
2018-06-23T10:50:39.604Z,5.65
2018-06-23T10:51:43.025Z,9.75
2018-06-23T10:52:46.411Z,9.23
2018-06-23T10:53:49.787Z,9.23
2018-06-23T10:54:53.175Z,8.53
2018-06-23T10:55:58.076Z,10.08
2018-06-23T10:57:01.491Z,7.37
2018-06-23T10:58:04.906Z,7.05
2018-06-23T10:59:08.283Z,8.18
2018-06-23T11:00:12.609Z,8.40
2018-06-23T11:01:17.091Z,7.10
2018-06-23T11:02:20.496Z,8.15
2018-06-23T11:03:23.911Z,7.40
2018-06-23T11:04:26.990Z,8.08
2018-06-23T11:05:30.963Z,8.45
2018-06-23T11:06:34.355Z,10.30
2018-06-23T11:07:37.733Z,8.15
2018-06-23T11:08:41.191Z,4.70
2018-06-23T11:09:44.607Z,11.65
2018-06-23T11:10:49.097Z,5.25
2018-06-23T11:11:52.551Z,6.67
2018-06-23T11:12:55.622Z,7.92
2018-06-23T11:13:58.719Z,7.90
2018-06-23T11:15:02.155Z,6.08
2018-06-23T11:16:06.060Z,6.35
2018-06-23T11:17:09.154Z,6.55
2018-06-23T11:18:12.259Z,5.50
2018-06-23T11:19:15.652Z,6.83
2018-06-23T11:20:20.161Z,7.58
2018-06-23T11:21:24.739Z,7.85
2018-06-23T11:22:28.128Z,4.83
2018-06-23T11:23:31.511Z,8.43
2018-06-23T11:24:35.090Z,4.25
2018-06-23T11:25:39.406Z,4.35
2018-06-23T11:26:42.503Z,6.15
2018-06-23T11:27:45.575Z,7.15
2018-06-23T11:28:48.666Z,7.35
2018-06-23T11:29:52.108Z,4.70
2018-06-23T11:30:57.506Z,6.65
2018-06-23T11:32:00.924Z,4.83
2018-06-23T11:33:04.311Z,8.35
2018-06-23T11:34:07.727Z,5.90
2018-06-23T11:35:12.282Z,5.33
2018-06-23T11:36:16.677Z,6.78
2018-06-23T11:37:20.079Z,6.42
2018-06-23T11:38:23.461Z,4.92
2018-06-23T11:39:26.983Z,5.05
2018-06-23T11:40:31.512Z,2.80
2018-06-23T11:41:34.623Z,4.28
2018-06-23T11:42:37.996Z,6.42
2018-06-23T11:43:41.099Z,6.70
2018-06-23T11:44:44.475Z,4.65
2018-06-23T11:45:48.931Z,8.35
2018-06-23T11:46:52.327Z,4.03
2018-06-23T11:47:55.707Z,6.42
2018-06-23T11:48:59.084Z,4.12
2018-06-23T11:50:03.468Z,8.45
2018-06-23T11:51:08.000Z,6.50
2018-06-23T11:52:11.430Z,5.45
2018-06-23T11:53:14.522Z,7.92
2018-06-23T11:54:17.587Z,2.67
2018-06-23T11:55:22.187Z,4.22
2018-06-23T11:56:26.382Z,5.25
2018-06-23T11:57:29.543Z,5.62
2018-06-23T11:58:32.911Z,3.83
2018-06-23T11:59:36.296Z,9.50
2018-06-23T12:00:40.758Z,5.70
2018-06-23T12:01:43.891Z,6.90
2018-06-23T12:02:47.251Z,5.33
2018-06-23T12:03:50.631Z,6.58
2018-06-23T12:04:53.703Z,6.90
2018-06-23T12:05:57.707Z,8.95
2018-06-23T12:07:01.103Z,7.45
2018-06-23T12:08:04.480Z,5.17
2018-06-23T12:09:08.005Z,4.72
2018-06-23T12:10:12.480Z,4.28
2018-06-23T12:11:16.988Z,7.05
2018-06-23T12:12:20.532Z,9.15
2018-06-23T12:13:23.961Z,5.37
2018-06-23T12:14:27.039Z,5.03
2018-06-23T12:15:32.179Z,6.90
2018-06-23T12:16:35.642Z,7.08
2018-06-23T12:17:39.012Z,4.80
2018-06-23T12:18:42.395Z,9.13
2018-06-23T12:19:46.259Z,3.80
2018-06-23T12:20:50.698Z,3.33
2018-06-23T12:21:54.091Z,7.03
2018-06-23T12:22:57.475Z,4.87
2018-06-23T12:24:00.863Z,5.47
2018-06-23T12:25:05.062Z,5.70
2018-06-23T12:26:09.747Z,3.98
2018-06-23T12:27:13.170Z,4.45
2018-06-23T12:28:16.539Z,9.05
2018-06-23T12:29:19.927Z,6.83
2018-06-23T12:30:24.445Z,5.83
2018-06-23T12:31:28.270Z,7.75
2018-06-23T12:32:31.651Z,4.97
2018-06-23T12:33:35.059Z,5.62
2018-06-23T12:34:38.136Z,5.45
2018-06-23T12:35:42.676Z,3.33
2018-06-23T12:36:46.112Z,8.55
2018-06-23T12:37:49.491Z,4.37
2018-06-23T12:38:52.919Z,3.95
2018-06-23T12:39:57.027Z,4.12
2018-06-23T12:41:01.483Z,5.47
2018-06-23T12:42:04.657Z,5.80
2018-06-23T12:43:08.032Z,4.90
2018-06-23T12:44:11.403Z,5.83
2018-06-23T12:45:15.709Z,4.87
2018-06-23T12:46:20.172Z,4.33
2018-06-23T12:47:23.595Z,4.83
2018-06-23T12:48:27.286Z,5.62
2018-06-23T12:49:30.615Z,3.22
2018-06-23T12:50:35.852Z,7.05
2018-06-23T12:51:39.271Z,4.78
2018-06-23T12:52:42.660Z,7.70
2018-06-23T12:53:46.043Z,7.90
2018-06-23T12:54:49.117Z,6.72
2018-06-23T12:55:52.893Z,7.90
2018-06-23T12:56:56.299Z,4.65
2018-06-23T12:57:59.432Z,8.15
2018-06-23T12:59:02.807Z,7.05
2018-06-23T13:00:08.746Z,8.10
2018-06-23T13:01:13.110Z,7.20
2018-06-23T13:02:16.509Z,6.95
2018-06-23T13:03:19.599Z,8.48
2018-06-23T13:04:22.663Z,6.78
2018-06-23T13:05:26.378Z,6.40
2018-06-23T13:06:29.980Z,6.17
2018-06-23T13:07:33.401Z,6.42
2018-06-23T13:08:36.791Z,4.75
2018-06-23T13:09:40.167Z,8.28
2018-06-23T13:10:44.462Z,9.20
2018-06-23T13:11:47.867Z,6.17
2018-06-23T13:12:51.242Z,6.90
2018-06-23T13:13:54.640Z,9.78
2018-06-23T13:14:58.072Z,6.03
2018-06-23T13:16:02.686Z,5.30
2018-06-23T13:17:06.095Z,10.03
2018-06-23T13:18:09.928Z,8.28
2018-06-23T13:19:13.312Z,6.25
2018-06-23T13:20:17.895Z,8.00
2018-06-23T13:21:22.640Z,6.42
2018-06-23T13:22:26.049Z,6.50
2018-06-23T13:23:29.436Z,10.45
2018-06-23T13:24:32.817Z,10.00
2018-06-23T13:25:38.123Z,9.90
2018-06-23T13:26:41.516Z,6.58
2018-06-23T13:27:44.988Z,7.60
2018-06-23T13:28:48.383Z,9.35
2018-06-23T13:29:51.760Z,7.75
2018-06-23T13:30:56.244Z,5.40
2018-06-23T13:31:59.647Z,5.30
2018-06-23T13:33:03.022Z,5.53
2018-06-23T13:34:06.432Z,7.72
2018-06-23T13:35:11.299Z,5.80
2018-06-23T13:36:15.786Z,6.30
2018-06-23T13:37:19.195Z,8.68
2018-06-23T13:38:22.274Z,5.10
2018-06-23T13:39:25.393Z,12.43
2018-06-23T13:40:30.116Z,6.62
2018-06-23T13:41:33.539Z,9.05
2018-06-23T13:42:37.067Z,5.50
2018-06-23T13:43:40.461Z,7.35
2018-06-23T13:44:43.855Z,11.05
2018-06-23T13:45:48.857Z,7.75
2018-06-23T13:46:52.284Z,8.60
2018-06-23T13:47:55.688Z,5.40
2018-06-23T13:48:59.104Z,6.17
2018-06-23T13:50:02.313Z,11.53
2018-06-23T13:51:06.722Z,8.88